createdAt,value
2018-09-02T00:01:45.981Z,99.49
2018-09-02T00:04:50.176Z,99.04
2018-09-02T00:07:54.409Z,99.50
2018-09-02T00:10:58.629Z,98.88
2018-09-02T00:14:02.829Z,100.00
2018-09-02T00:17:07.040Z,99.12
2018-09-02T00:20:11.233Z,99.35
2018-09-02T00:23:15.480Z,98.86
2018-09-02T00:26:19.704Z,100.00
2018-09-02T00:29:23.892Z,100.00
2018-09-02T00:32:28.116Z,99.71
2018-09-02T00:35:32.338Z,100.00
2018-09-02T00:38:36.577Z,100.00
2018-09-02T00:41:40.942Z,100.00
2018-09-02T00:44:45.176Z,100.00
2018-09-02T00:47:49.374Z,100.00
2018-09-02T00:50:53.597Z,100.00
2018-09-02T00:53:57.780Z,100.00
2018-09-02T00:57:02.022Z,100.00
2018-09-02T01:00:06.657Z,100.00
2018-09-02T01:03:10.896Z,100.00
2018-09-02T01:06:15.098Z,100.00
2018-09-02T01:09:19.310Z,99.94
2018-09-02T01:12:23.540Z,100.00
2018-09-02T01:15:27.761Z,100.00
2018-09-02T01:18:31.956Z,100.00
2018-09-02T01:21:36.184Z,100.00
2018-09-02T01:24:40.382Z,100.00
2018-09-02T01:27:44.610Z,100.00
2018-09-02T01:30:48.820Z,100.00
2018-09-02T01:33:53.040Z,100.00
2018-09-02T01:36:57.250Z,100.00
2018-09-02T01:40:01.472Z,100.00
2018-09-02T01:43:05.857Z,100.00
2018-09-02T01:46:10.074Z,100.00
2018-09-02T01:49:14.281Z,100.00
2018-09-02T01:52:18.505Z,100.00
2018-09-02T01:55:22.750Z,100.00
2018-09-02T01:58:27.005Z,100.00
2018-09-02T02:01:31.213Z,100.00
2018-09-02T02:04:41.343Z,100.00
2018-09-02T02:07:45.529Z,100.00
2018-09-02T02:10:49.767Z,100.00
2018-09-02T02:13:53.996Z,100.00
2018-09-02T02:16:58.246Z,100.00
2018-09-02T02:20:02.445Z,100.00
2018-09-02T02:23:06.665Z,100.00
2018-09-02T02:26:10.869Z,100.00
2018-09-02T02:29:15.105Z,100.00
2018-09-02T02:32:19.310Z,100.00
2018-09-02T02:35:23.540Z,100.00
2018-09-02T02:38:27.753Z,100.00
2018-09-02T02:41:31.965Z,100.00
2018-09-02T02:44:36.161Z,100.00
2018-09-02T02:47:40.388Z,100.00
2018-09-02T02:50:44.593Z,100.00
2018-09-02T02:53:48.805Z,100.00
2018-09-02T02:56:53.053Z,100.00
2018-09-02T02:59:57.264Z,100.00
2018-09-02T03:03:01.518Z,100.00
2018-09-02T03:06:05.892Z,100.00
2018-09-02T03:09:11.340Z,100.00
2018-09-02T03:12:15.558Z,100.00
2018-09-02T03:15:19.849Z,100.00
2018-09-02T03:18:24.072Z,100.00
2018-09-02T03:21:28.301Z,100.00
2018-09-02T03:24:32.509Z,100.00
2018-09-02T03:27:36.781Z,100.00
2018-09-02T03:30:41.009Z,100.00
2018-09-02T03:33:45.216Z,100.00
2018-09-02T03:36:49.421Z,100.00
2018-09-02T03:39:53.689Z,100.00
2018-09-02T03:42:57.957Z,100.00
2018-09-02T03:46:02.173Z,100.00
2018-09-02T03:49:06.416Z,100.00
2018-09-02T03:52:10.616Z,100.00
2018-09-02T03:55:14.865Z,100.00
2018-09-02T03:58:19.066Z,100.00
2018-09-02T04:01:23.285Z,100.00
2018-09-02T04:04:27.770Z,100.00
2018-09-02T04:07:32.003Z,100.00
2018-09-02T04:10:36.205Z,100.00
2018-09-02T04:13:40.412Z,100.00
2018-09-02T04:16:44.620Z,100.00
2018-09-02T04:19:48.836Z,100.00
2018-09-02T04:22:53.037Z,100.00
2018-09-02T04:25:57.269Z,100.00
2018-09-02T04:29:01.494Z,100.00
2018-09-02T04:32:05.877Z,100.00
2018-09-02T04:35:10.079Z,100.00
2018-09-02T04:38:14.272Z,100.00
2018-09-02T04:41:18.506Z,100.00
2018-09-02T04:44:22.704Z,100.00
2018-09-02T04:47:26.923Z,100.00
2018-09-02T04:50:31.125Z,100.00
2018-09-02T04:53:35.409Z,100.00
2018-09-02T04:56:39.612Z,100.00
2018-09-02T04:59:43.833Z,100.00
2018-09-02T05:02:48.050Z,100.00
2018-09-02T05:05:52.273Z,100.00
2018-09-02T05:08:56.469Z,100.00
2018-09-02T05:12:00.681Z,100.00
2018-09-02T05:15:04.888Z,100.00
2018-09-02T05:18:09.221Z,100.00
2018-09-02T05:21:13.414Z,100.00
2018-09-02T05:24:17.654Z,100.00
2018-09-02T05:27:22.166Z,100.00
2018-09-02T05:30:26.366Z,100.00
2018-09-02T05:33:30.570Z,100.00
2018-09-02T05:36:36.082Z,100.00
2018-09-02T05:39:40.297Z,100.00
2018-09-02T05:42:44.508Z,100.00
2018-09-02T05:45:48.696Z,100.00
2018-09-02T05:48:53.290Z,100.00
2018-09-02T05:51:57.498Z,100.00
2018-09-02T05:55:01.685Z,100.00
2018-09-02T05:58:05.928Z,100.00
2018-09-02T06:01:10.161Z,100.00
2018-09-02T06:04:14.359Z,100.00
2018-09-02T06:07:18.589Z,100.00
2018-09-02T06:10:22.986Z,100.00
2018-09-02T06:13:27.204Z,100.00
2018-09-02T06:16:31.400Z,100.00
2018-09-02T06:19:35.630Z,100.00
2018-09-02T06:22:39.839Z,100.00
2018-09-02T06:25:44.032Z,100.00
2018-09-02T06:28:48.240Z,100.00
2018-09-02T06:31:52.473Z,100.00
2018-09-02T06:34:56.736Z,100.00
2018-09-02T06:38:00.966Z,100.00
2018-09-02T06:41:05.180Z,100.00
2018-09-02T06:44:09.896Z,100.00
2018-09-02T06:47:15.630Z,100.00
2018-09-02T06:50:21.497Z,100.00
2018-09-02T06:53:25.737Z,100.00
2018-09-02T06:56:30.714Z,100.00
2018-09-02T06:59:35.173Z,100.00
2018-09-02T07:02:39.413Z,100.00
2018-09-02T07:05:43.673Z,100.00
2018-09-02T07:08:47.938Z,100.00
2018-09-02T07:11:52.165Z,100.00
2018-09-02T07:14:56.378Z,100.00
2018-09-02T07:18:00.641Z,100.00
2018-09-02T07:21:04.880Z,100.00
2018-09-02T07:24:09.221Z,100.00
2018-09-02T07:27:13.432Z,100.00
2018-09-02T07:30:17.688Z,100.00
2018-09-02T07:33:21.895Z,100.00
2018-09-02T07:36:26.106Z,100.00
2018-09-02T07:39:30.333Z,99.89
2018-09-02T07:42:34.607Z,99.21
2018-09-02T07:45:38.806Z,95.36
2018-09-02T07:48:43.058Z,94.16
2018-09-02T07:51:47.285Z,92.80
2018-09-02T07:54:51.547Z,92.68
2018-09-02T07:57:55.810Z,92.50
2018-09-02T08:01:00.053Z,91.98
2018-09-02T08:04:04.310Z,89.43
2018-09-02T08:07:08.589Z,89.32
2018-09-02T08:10:12.885Z,88.33
2018-09-02T08:13:17.626Z,85.18
2018-09-02T08:16:21.857Z,85.58
2018-09-02T08:19:26.070Z,83.66
2018-09-02T08:22:31.105Z,82.49
2018-09-02T08:25:35.312Z,81.83
2018-09-02T08:28:39.542Z,80.16
2018-09-02T08:31:43.750Z,81.76
2018-09-02T08:34:47.993Z,80.77
2018-09-02T08:37:52.214Z,79.54
2018-09-02T08:40:56.437Z,78.38
2018-09-02T08:44:00.624Z,74.74
2018-09-02T08:47:04.925Z,75.74
2018-09-02T08:50:09.140Z,73.20
2018-09-02T08:53:13.352Z,73.44
2018-09-02T08:56:17.565Z,75.93
2018-09-02T08:59:21.789Z,76.17
2018-09-02T09:02:26.026Z,76.21
2018-09-02T09:05:30.301Z,74.75
2018-09-02T09:08:34.556Z,73.86
2018-09-02T09:11:38.704Z,74.75
2018-09-02T09:14:42.993Z,72.15
2018-09-02T09:17:47.221Z,72.86
2018-09-02T09:20:51.413Z,75.54
2018-09-02T09:23:55.767Z,74.58
2018-09-02T09:26:59.911Z,73.67
2018-09-02T09:30:04.173Z,74.42
2018-09-02T09:33:08.620Z,74.02
2018-09-02T09:36:12.864Z,74.62
2018-09-02T09:39:17.057Z,74.66
2018-09-02T09:42:21.264Z,71.87
2018-09-02T09:45:25.496Z,72.90
2018-09-02T09:48:29.716Z,72.41
2018-09-02T09:51:33.905Z,72.88
2018-09-02T09:54:38.174Z,72.90
2018-09-02T09:57:42.404Z,74.29
2018-09-02T10:00:50.757Z,74.61
2018-09-02T10:03:54.984Z,73.54
2018-09-02T10:06:59.196Z,73.55
2018-09-02T10:10:03.389Z,72.97
2018-09-02T10:13:07.584Z,72.85
2018-09-02T10:16:12.661Z,72.82
2018-09-02T10:19:16.861Z,73.78
2018-09-02T10:22:21.077Z,72.77
2018-09-02T10:25:25.333Z,72.76
2018-09-02T10:28:29.613Z,73.33
2018-09-02T10:31:33.889Z,73.75
2018-09-02T10:34:38.166Z,73.43
2018-09-02T10:37:42.701Z,70.12
2018-09-02T10:40:47.039Z,72.03
2018-09-02T10:43:51.452Z,72.25
2018-09-02T10:46:55.713Z,74.60
2018-09-02T10:49:59.976Z,73.99
2018-09-02T10:53:04.322Z,74.39
2018-09-02T10:56:08.601Z,74.90
2018-09-02T10:59:13.190Z,75.29
2018-09-02T11:02:17.803Z,74.51
2018-09-02T11:05:22.249Z,74.59
2018-09-02T11:08:27.192Z,72.43
2018-09-02T11:11:31.867Z,73.11
2018-09-02T11:14:36.076Z,71.85
2018-09-02T11:17:40.583Z,71.37
2018-09-02T11:20:44.828Z,70.25
2018-09-02T11:23:49.170Z,70.08
2018-09-02T11:26:53.482Z,72.72
2018-09-02T11:29:57.725Z,70.27
2018-09-02T11:33:02.036Z,70.89
2018-09-02T11:36:06.881Z,71.89
2018-09-02T11:39:11.674Z,72.95
2018-09-02T11:42:16.026Z,72.13
2018-09-02T11:45:20.667Z,72.66
2018-09-02T11:48:25.740Z,67.47
2018-09-02T11:51:30.146Z,68.68
2018-09-02T11:54:34.978Z,65.56
2018-09-02T11:57:39.785Z,67.56
2018-09-02T12:00:44.544Z,68.54
2018-09-02T12:03:48.960Z,67.94
2018-09-02T12:06:53.553Z,67.69
2018-09-02T12:10:14.990Z,68.01
2018-09-02T12:13:22.526Z,69.74
2018-09-02T12:16:58.897Z,67.97
2018-09-02T12:20:15.269Z,68.76
2018-09-02T12:23:19.510Z,68.16
2018-09-02T12:26:24.017Z,68.42
2018-09-02T12:29:28.313Z,71.70
2018-09-02T12:32:32.649Z,72.39
2018-09-02T12:35:36.977Z,71.77
2018-09-02T12:38:41.305Z,72.06
2018-09-02T12:41:45.607Z,72.16
2018-09-02T12:44:49.932Z,70.97
2018-09-02T12:47:54.707Z,72.43
2018-09-02T12:50:59.018Z,68.53
2018-09-02T12:54:03.384Z,68.60
2018-09-02T12:57:09.847Z,70.08
2018-09-02T13:00:14.749Z,69.78
2018-09-02T13:03:19.179Z,70.31
2018-09-02T13:06:24.090Z,71.11
2018-09-02T13:09:29.351Z,72.34
2018-09-02T13:16:25.809Z,68.26
2018-09-02T13:19:30.102Z,69.03
2018-09-02T13:22:34.349Z,70.14
2018-09-02T13:25:38.878Z,71.03
2018-09-02T13:28:43.141Z,70.17
2018-09-02T13:31:47.639Z,68.70
2018-09-02T13:34:52.080Z,67.69
2018-09-02T13:37:56.393Z,67.23
2018-09-02T13:41:00.670Z,69.13
2018-09-02T13:44:05.108Z,69.05
2018-09-02T13:47:09.521Z,68.88
2018-09-02T13:50:13.867Z,66.35
2018-09-02T13:53:18.175Z,66.02
2018-09-02T13:56:22.577Z,68.76
2018-09-02T13:59:26.977Z,70.35
2018-09-02T14:02:31.243Z,69.39
2018-09-02T14:05:35.581Z,66.86
2018-09-02T14:08:39.893Z,68.73
2018-09-02T14:11:44.219Z,67.83
2018-09-02T14:14:49.126Z,66.73
2018-09-02T14:17:53.597Z,67.89
2018-09-02T14:20:58.022Z,67.57
2018-09-02T14:24:02.357Z,67.89
2018-09-02T14:27:06.719Z,68.32
2018-09-02T14:30:11.005Z,68.83
2018-09-02T14:33:15.389Z,68.33
2018-09-02T14:36:19.706Z,67.18
2018-09-02T14:39:24.046Z,67.84
2018-09-02T14:42:28.493Z,68.62
2018-09-02T14:45:32.832Z,68.24
2018-09-02T14:48:37.330Z,68.38
2018-09-02T14:51:41.692Z,68.89
2018-09-02T14:54:46.117Z,67.78
2018-09-02T14:57:50.394Z,68.73
2018-09-02T15:00:54.684Z,67.38
2018-09-02T15:03:59.062Z,67.58
2018-09-02T15:07:03.414Z,68.30
2018-09-02T15:10:07.894Z,68.25
2018-09-02T15:13:12.210Z,67.47
2018-09-02T15:16:16.501Z,68.54
2018-09-02T15:19:20.812Z,68.17
2018-09-02T15:22:25.105Z,68.87
2018-09-02T15:25:29.461Z,68.97
2018-09-02T15:28:33.807Z,70.11
2018-09-02T15:31:38.096Z,70.10
2018-09-02T15:34:42.505Z,70.45
2018-09-02T15:37:46.804Z,70.43
2018-09-02T15:40:51.269Z,71.55
2018-09-02T15:43:55.750Z,71.35
2018-09-02T15:47:00.193Z,71.29
2018-09-02T15:50:04.762Z,69.46
2018-09-02T15:53:09.180Z,70.12
2018-09-02T15:56:13.640Z,71.18
2018-09-02T15:59:17.941Z,71.74
2018-09-02T16:02:22.242Z,71.70
2018-09-02T16:05:26.596Z,70.50
2018-09-02T16:08:31.079Z,68.76
2018-09-02T16:11:35.503Z,67.96
2018-09-02T16:14:39.950Z,66.76
2018-09-02T16:17:44.268Z,66.02
2018-09-02T16:20:48.700Z,64.79
2018-09-02T16:23:53.024Z,66.16
2018-09-02T16:26:57.392Z,67.26
2018-09-02T16:30:01.704Z,67.63
2018-09-02T16:33:06.119Z,69.04
2018-09-02T16:36:10.526Z,70.70
2018-09-02T16:39:25.858Z,72.52
2018-09-02T16:42:30.863Z,73.51
2018-09-02T16:45:35.208Z,73.39
2018-09-02T16:48:39.440Z,75.05
2018-09-02T16:51:43.694Z,75.21
2018-09-02T16:54:47.926Z,75.39
2018-09-02T16:57:52.235Z,76.50
2018-09-02T17:00:56.504Z,77.77
2018-09-02T17:04:03.585Z,78.17
2018-09-02T17:07:07.889Z,79.11
2018-09-02T17:10:12.111Z,79.42
2018-09-02T17:13:17.036Z,80.13
2018-09-02T17:16:21.297Z,80.42
2018-09-02T17:19:28.692Z,80.82
2018-09-02T17:22:33.025Z,81.45
2018-09-02T17:25:37.271Z,81.62
2018-09-02T17:28:41.534Z,82.24
2018-09-02T17:31:45.755Z,82.47
2018-09-02T17:34:50.102Z,83.39
2018-09-02T17:37:54.398Z,83.81
2018-09-02T17:40:58.665Z,84.29
2018-09-02T17:44:02.933Z,84.32
2018-09-02T17:47:07.224Z,84.66
2018-09-02T17:50:11.548Z,83.97
2018-09-02T17:53:15.876Z,85.19
2018-09-02T17:56:20.457Z,85.98
2018-09-02T17:59:24.709Z,86.50
2018-09-02T18:02:29.134Z,86.37
2018-09-02T18:05:33.336Z,86.61
2018-09-02T18:08:37.657Z,87.19
2018-09-02T18:11:42.046Z,87.59
2018-09-02T18:14:46.277Z,88.75
2018-09-02T18:17:50.581Z,88.99
2018-09-02T18:20:54.938Z,89.05
2018-09-02T18:23:59.349Z,89.72
2018-09-02T18:27:03.809Z,90.32
2018-09-02T18:30:08.269Z,90.22
2018-09-02T18:33:12.802Z,90.30
2018-09-02T18:36:17.254Z,91.16
2018-09-02T18:39:21.730Z,91.64
2018-09-02T18:42:26.241Z,91.51
2018-09-02T18:45:30.687Z,92.11
2018-09-02T18:48:34.971Z,92.21
2018-09-02T18:51:39.951Z,93.29
2018-09-02T18:54:44.326Z,92.74
2018-09-02T18:57:48.828Z,93.51
2018-09-02T19:02:01.186Z,94.00
2018-09-02T19:05:05.570Z,93.86
2018-09-02T19:08:09.821Z,94.05
2018-09-02T19:11:14.098Z,95.17
2018-09-02T19:14:18.406Z,94.86
2018-09-02T19:17:22.745Z,95.91
2018-09-02T19:20:27.080Z,95.95
2018-09-02T19:23:31.466Z,96.66
2018-09-02T19:26:35.816Z,96.82
2018-09-02T19:29:40.218Z,97.12
2018-09-02T19:32:44.515Z,97.37
2018-09-02T19:35:48.985Z,97.29
2018-09-02T19:38:53.313Z,97.39
2018-09-02T19:41:57.676Z,97.69
2018-09-02T19:45:01.933Z,97.48
2018-09-02T19:48:06.293Z,97.96
2018-09-02T19:51:10.570Z,97.83
2018-09-02T19:54:14.825Z,98.43
2018-09-02T19:57:19.131Z,98.70
2018-09-02T20:00:24.360Z,98.34
2018-09-02T20:03:37.705Z,98.76
2018-09-02T20:06:42.021Z,99.03
2018-09-02T20:09:46.354Z,98.68
2018-09-02T20:12:50.774Z,99.02
2018-09-02T20:15:55.084Z,99.26
2018-09-02T20:18:59.526Z,98.52
2018-09-02T20:22:03.762Z,98.99
2018-09-02T20:25:08.055Z,99.17
2018-09-02T20:28:12.377Z,99.44
2018-09-02T20:31:16.766Z,98.94
2018-09-02T20:34:21.130Z,99.35
2018-09-02T20:37:25.433Z,99.77
2018-09-02T20:40:29.721Z,99.40
2018-09-02T20:43:34.037Z,99.53
2018-09-02T20:46:38.314Z,99.53
2018-09-02T20:49:42.588Z,100.00
2018-09-02T20:52:46.872Z,99.86
2018-09-02T20:55:51.199Z,100.00
2018-09-02T20:58:55.496Z,100.00
2018-09-02T21:01:59.899Z,100.00
2018-09-02T21:05:04.269Z,100.00
2018-09-02T21:08:08.457Z,100.00
2018-09-02T21:11:12.749Z,100.00
2018-09-02T21:14:17.062Z,100.00
2018-09-02T21:17:21.321Z,100.00
2018-09-02T21:20:25.555Z,100.00
2018-09-02T21:23:29.789Z,100.00
2018-09-02T21:26:33.996Z,100.00
2018-09-02T21:29:38.265Z,100.00
2018-09-02T21:32:42.477Z,100.00
2018-09-02T21:35:46.734Z,100.00
2018-09-02T21:38:50.987Z,100.00
2018-09-02T21:41:55.201Z,100.00
2018-09-02T21:44:59.424Z,100.00
2018-09-02T21:48:03.669Z,100.00
2018-09-02T21:51:07.900Z,100.00
2018-09-02T21:54:12.127Z,100.00
2018-09-02T21:57:16.332Z,100.00
2018-09-02T22:00:20.561Z,100.00
2018-09-02T22:03:24.797Z,100.00
2018-09-02T22:06:29.047Z,100.00
2018-09-02T22:09:33.782Z,100.00
2018-09-02T22:12:38.004Z,100.00
2018-09-02T22:15:42.232Z,100.00
2018-09-02T22:18:46.488Z,100.00
2018-09-02T22:21:50.721Z,100.00
2018-09-02T22:24:55.038Z,100.00
2018-09-02T22:27:59.269Z,100.00
2018-09-02T22:31:03.524Z,100.00
2018-09-02T22:34:07.729Z,100.00
2018-09-02T22:37:12.001Z,100.00
2018-09-02T22:40:16.225Z,100.00
2018-09-02T22:43:20.589Z,100.00
2018-09-02T22:46:24.853Z,100.00
2018-09-02T22:49:29.080Z,100.00
2018-09-02T22:52:33.315Z,100.00
2018-09-02T22:55:37.545Z,100.00
2018-09-02T22:58:41.800Z,100.00
2018-09-02T23:01:46.050Z,100.00
2018-09-02T23:04:50.311Z,100.00
2018-09-02T23:07:54.532Z,100.00
2018-09-02T23:10:58.822Z,100.00
2018-09-02T23:14:03.074Z,100.00
2018-09-02T23:17:07.313Z,100.00
2018-09-02T23:20:11.517Z,100.00
2018-09-02T23:23:15.748Z,100.00
2018-09-02T23:26:20.013Z,100.00
2018-09-02T23:29:24.296Z,100.00
2018-09-02T23:32:28.554Z,100.00
2018-09-02T23:35:32.813Z,100.00
2018-09-02T23:38:37.092Z,100.00
2018-09-02T23:41:41.422Z,100.00
2018-09-02T23:44:45.671Z,100.00
2018-09-02T23:47:49.952Z,100.00
2018-09-02T23:50:54.241Z,100.00
2018-09-02T23:53:58.598Z,100.00
2018-09-02T23:57:02.820Z,100.00
